首页
METAR-TAF:

METAR-TAF

机场 :

Laupheim, 德国

纬度: 48-13N, 经度: 009-55E, 海拔: 538米

当前天气观测

该预报发布于45分钟前的15:20 UTC
风速18节,风向西南
温度 14°C
湿度 63%
气压 1001 hPa
能见度10公里或以上
散云层高于3000英尺
多云层高于6000英尺
多云层高于12000英尺

METAR: ETHL 051520Z 23018KT 9999 SCT030 BKN060 BKN120 14/07 Q1001 BLU

时间: 18:05 (16:05 UTC)

预报

该预报发布于8小时和40分钟前的07:25 UTC
预报有效从05日的 08点(UTC)到 05日的 17点(UTC)
风速5节,风向西南
能见度10公里或以上
少量云层高于2000英尺
多云层高于4000英尺
短暂存在
从 05日的 08点(UTC)到 05日的 11点(UTC)
风速10节,风向西转西南
能見度: 3000
多云层高于800英尺
多云层高于2000英尺, 塔状积云.
阵雨
短暂存在
从 05日的 11点(UTC)到 05日的 17点(UTC)
风速10节,风向西转西南,有时为25节阵风
能見度: 6000
多云层高于1500英尺
多云层高于3000英尺, 塔状积云.
小阵雨

TAF: ETHL 050725Z 0508/0517 23005KT 9999 NSW FEW020 BKN040 TEMPO 0508/0511 25010KT 3000 SHRA BKN008 BKN020TCU TEMPO 0511/0517 24010G25KT 6000 -SHRA BKN015 BKN030TCU

超过4000个机场的气象观测和天气预报(METAR&TAF报告)。

可查询的气象台以黄色和红色小点在地图上表示。

将鼠标移到小点上方,可查看气象台名称。

然后点击查看天气观测和预报。

如需切换地图:点击带黑十字的绿色按钮放大地图;点击带横线的绿色按钮缩小地图;或者点击绿色箭头查看邻近地区的地图。


METAR-TAF: